| time (UTC) | temp C | wind direction | speed KPH | gust KPH | rain 1hr cm | rain 24hr cm | rain mn cm | humidity % | barometer mb |
| 20260903021349 | 25 | 176 | 0.0 | 0.0 | 0.10 | 0.71 | 0.69 | 84 | 1014.8 |
| 20260903020340 | 25 | 176 | 0.0 | 1.6 | 0.10 | 0.69 | 0.66 | 84 | 1014.7 |
| 20260903015330 | 25 | 160 | 0.0 | 1.6 | 0.13 | 0.69 | 0.66 | 83 | 1014.8 |
| 20260903014404 | 25 | 160 | 0.0 | 1.6 | 0.13 | 0.66 | 0.64 | 83 | 1014.6 |
| 20260903013334 | 25 | 100 | 0.0 | 0.0 | 0.15 | 0.66 | 0.64 | 83 | 1014.7 |
| 20260903012402 | 25 | 100 | 0.0 | 1.6 | 0.18 | 0.64 | 0.61 | 84 | 1014.6 |
| 20260903011332 | 25 | 139 | 0.0 | 1.6 | 0.20 | 0.61 | 0.58 | 83 | 1014.4 |
| 20260903010404 | 25 | 139 | 0.0 | 1.6 | 0.20 | 0.58 | 0.56 | 83 | 1014.3 |
| 20260903005334 | 25 | 147 | 0.0 | 0.0 | 0.20 | 0.56 | 0.53 | 83 | 1014.3 |
| 20260903003400 | 25 | 130 | 0.0 | 1.6 | 0.15 | 0.51 | 0.48 | 82 | 1013.5 |
| 20260903002336 | 25 | 127 | 0.0 | 1.6 | 0.10 | 0.46 | 0.43 | 81 | 1013.6 |
| 20260903001325 | 25 | 101 | 0.0 | 0.0 | 0.08 | 0.41 | 0.38 | 80 | 1013.7 |
| 20260903000315 | 25 | 95 | 0.0 | 1.6 | 0.05 | 0.38 | 0.36 | 80 | 1013.8 |
| 20260902235405 | 25 | 92 | 0.0 | 0.0 | 0.03 | 0.38 | 0.33 | 81 | 1013.9 |
| 20260902234333 | 25 | 92 | 0.0 | 1.6 | 0.03 | 0.38 | 0.33 | 82 | 1013.8 |
| 20260902233402 | 24 | 120 | 0.0 | 1.6 | 0.05 | 0.38 | 0.33 | 81 | 1014.0 |
| 20260902232353 | 25 | 101 | 0.0 | 1.6 | 0.10 | 0.38 | 0.33 | 81 | 1014.2 |
| 20260902231402 | 25 | 101 | 0.0 | 1.6 | 0.13 | 0.36 | 0.30 | 80 | 1014.1 |
| 20260902230336 | 25 | 101 | 0.0 | 1.6 | 0.13 | 0.36 | 0.30 | 80 | 1013.7 |
| 20260902225359 | 25 | 108 | 0.0 | 1.6 | 0.13 | 0.36 | 0.30 | 80 | 1014.2 |
| 20260902224357 | 25 | 101 | 0.0 | 3.2 | 0.13 | 0.36 | 0.30 | 79 | 1014.4 |
| 20260902223324 | 25 | 90 | 0.0 | 6.4 | 0.10 | 0.33 | 0.28 | 78 | 1014.2 |
| 20260902222354 | 26 | 91 | 0.0 | 8.0 | 0.08 | 0.30 | 0.25 | 77 | 1014.0 |
| 20260902221344 | 26 | 70 | 4.8 | 11.3 | 0.00 | 0.23 | 0.18 | 74 | 1013.5 |
| 20260902220411 | 26 | 59 | 3.2 | 12.9 | 0.00 | 0.23 | 0.18 | 72 | 1013.3 |
| 20260902215347 | 28 | 65 | 3.2 | 11.3 | 0.00 | 0.23 | 0.18 | 71 | 1013.4 |
| 20260902214423 | 28 | 91 | 0.0 | 4.8 | 0.00 | 0.23 | 0.18 | 72 | 1013.2 |
| 20260902213423 | 28 | 86 | 0.0 | 3.2 | 0.00 | 0.23 | 0.18 | 71 | 1012.9 |
| 20260902212351 | 28 | 201 | 1.6 | 8.0 | 0.00 | 0.23 | 0.18 | 71 | 1012.4 |
| 20260902211348 | 28 | 224 | 3.2 | 9.7 | 0.18 | 0.23 | 0.18 | 71 | 1012.5 |
| 20260902210315 | 28 | 235 | 1.6 | 4.8 | 0.18 | 0.23 | 0.18 | 75 | 1012.6 |
| 20260902205402 | 28 | 191 | 0.0 | 3.2 | 0.18 | 0.23 | 0.18 | 78 | 1012.3 |
| 20260902204337 | 28 | 172 | 0.0 | 4.8 | 0.18 | 0.23 | 0.18 | 79 | 1012.4 |
| 20260902203400 | 28 | 145 | 0.0 | 1.6 | 0.18 | 0.23 | 0.18 | 76 | 1012.5 |
| 20260902202334 | 30 | 192 | 1.6 | 11.3 | 0.18 | 0.23 | 0.18 | 69 | 1012.8 |
| 20260902201403 | 34 | 241 | 1.6 | 9.7 | 0.00 | 0.05 | 0.00 | 54 | 1012.6 |
| 20260902200353 | 33 | 174 | 1.6 | 6.4 | 0.00 | 0.05 | 0.00 | 50 | 1012.7 |
| 20260902195321 | 35 | 175 | 0.0 | 4.8 | 0.00 | 0.05 | 0.00 | 49 | 1012.8 |
| 20260902194355 | 33 | 144 | 1.6 | 8.0 | 0.00 | 0.05 | 0.00 | 52 | 1013.1 |
| 20260902193344 | 33 | 227 | 1.6 | 4.8 | 0.00 | 0.05 | 0.00 | 52 | 1013.1 |
| 20260902192332 | 33 | 200 | 1.6 | 9.7 | 0.00 | 0.05 | 0.00 | 51 | 1013.4 |
| 20260902191320 | 33 | 238 | 1.6 | 6.4 | 0.00 | 0.05 | 0.00 | 50 | 1013.4 |
| 20260902190320 | 33 | 209 | 1.6 | 11.3 | 0.00 | 0.05 | 0.00 | 52 | 1013.7 |
| 20260902185408 | 35 | 276 | 1.6 | 8.0 | 0.00 | 0.05 | 0.00 | 49 | 1013.8 |
| 20260902184359 | 34 | 212 | 0.0 | 6.4 | 0.00 | 0.05 | 0.00 | 50 | 1014.0 |
| 20260902183402 | 33 | 188 | 3.2 | 8.0 | 0.00 | 0.05 | 0.00 | 52 | 1014.2 |
| 20260902182336 | 33 | 184 | 1.6 | 8.0 | 0.00 | 0.05 | 0.00 | 52 | 1014.3 |
| 20260902180359 | 32 | 97 | 1.6 | 8.0 | 0.00 | 0.05 | 0.00 | 55 | 1014.6 |
| 20260902175346 | 32 | 260 | 0.0 | 6.4 | 0.00 | 0.05 | 0.00 | 55 | 1014.7 |
| 20260902174357 | 32 | 331 | 1.6 | 8.0 | 0.00 | 0.05 | 0.00 | 55 | 1014.8 |
| 20260902173344 | 32 | 195 | 3.2 | 8.0 | 0.00 | 0.05 | 0.00 | 56 | 1014.8 |
| 20260902172334 | 32 | 168 | 1.6 | 9.7 | 0.00 | 0.05 | 0.00 | 58 | 1014.9 |
| 20260902171405 | 31 | 231 | 1.6 | 8.0 | 0.00 | 0.05 | 0.00 | 60 | 1015.1 |
| 20260902170332 | 31 | 209 | 1.6 | 8.0 | 0.00 | 0.05 | 0.00 | 58 | 1015.3 |
| 20260902165403 | 31 | 243 | 3.2 | 6.4 | 0.00 | 0.05 | 0.00 | 57 | 1015.4 |
| 20260902164353 | 31 | 293 | 1.6 | 8.0 | 0.00 | 0.05 | 0.00 | 59 | 1015.4 |
| 20260902163323 | 31 | 208 | 3.2 | 8.0 | 0.00 | 0.05 | 0.00 | 60 | 1015.5 |
| 20260902162313 | 31 | 208 | 3.2 | 8.0 | 0.00 | 0.05 | 0.00 | 60 | 1015.7 |
| 20260902161401 | 31 | 243 | 1.6 | 9.7 | 0.00 | 0.05 | 0.00 | 59 | 1015.7 |
| 20260902160358 | 31 | 204 | 1.6 | 8.0 | 0.00 | 0.05 | 0.00 | 58 | 1015.8 |
| 20260902155325 | 31 | 181 | 0.0 | 6.4 | 0.00 | 0.05 | 0.00 | 61 | 1016.0 |
| 20260902154344 | 31 | 191 | 1.6 | 6.4 | 0.00 | 0.05 | 0.00 | 60 | 1016.2 |
| 20260902153335 | 31 | 295 | 1.6 | 6.4 | 0.00 | 0.05 | 0.00 | 61 | 1016.3 |
| 20260902152343 | 30 | 226 | 1.6 | 8.0 | 0.00 | 0.05 | 0.00 | 64 | 1016.4 |
| 20260902151333 | 30 | 335 | 1.6 | 6.4 | 0.00 | 0.05 | 0.00 | 67 | 1016.5 |
| 20260902150408 | 29 | 214 | 1.6 | 6.4 | 0.00 | 0.05 | 0.00 | 66 | 1016.4 |
| 20260902145357 | 29 | 194 | 1.6 | 4.8 | 0.00 | 0.05 | 0.00 | 69 | 1016.5 |
| 20260902144347 | 28 | 189 | 1.6 | 8.0 | 0.00 | 0.05 | 0.00 | 73 | 1016.4 |
| 20260902143337 | 27 | 260 | 1.6 | 4.8 | 0.00 | 0.05 | 0.00 | 73 | 1016.4 |
| 20260902142336 | 27 | 219 | 1.6 | 9.7 | 0.00 | 0.05 | 0.00 | 74 | 1016.2 |
| 20260902141359 | 27 | 208 | 1.6 | 8.0 | 0.00 | 0.05 | 0.00 | 75 | 1016.2 |
| 20260902140349 | 27 | 143 | 1.6 | 4.8 | 0.00 | 0.05 | 0.00 | 77 | 1016.3 |
| 20260902135323 | 27 | 184 | 1.6 | 4.8 | 0.00 | 0.05 | 0.00 | 77 | 1016.4 |
| 20260902134313 | 26 | 181 | 0.0 | 6.4 | 0.00 | 0.05 | 0.00 | 78 | 1016.4 |
| 20260902133346 | 26 | 227 | 1.6 | 4.8 | 0.00 | 0.05 | 0.00 | 79 | 1016.4 |
| 20260902132335 | 26 | 169 | 0.0 | 4.8 | 0.00 | 0.05 | 0.00 | 81 | 1016.2 |
| 20260902131342 | 25 | 186 | 0.0 | 4.8 | 0.00 | 0.05 | 0.00 | 82 | 1016.2 |
| 20260902130333 | 25 | 219 | 1.6 | 4.8 | 0.00 | 0.05 | 0.00 | 82 | 1016.2 |
| 20260902125400 | 25 | 207 | 1.6 | 6.4 | 0.00 | 0.05 | 0.00 | 83 | 1016.3 |
| 20260902124326 | 25 | 185 | 1.6 | 4.8 | 0.00 | 0.05 | 0.00 | 83 | 1016.3 |
| 20260902123340 | 25 | 127 | 1.6 | 4.8 | 0.00 | 0.05 | 0.00 | 83 | 1016.2 |
| 20260902122409 | 25 | 208 | 1.6 | 4.8 | 0.00 | 0.05 | 0.00 | 84 | 1016.1 |
| 20260902121358 | 24 | 184 | 0.0 | 4.8 | 0.00 | 0.05 | 0.00 | 84 | 1016.1 |
| 20260902120348 | 24 | 171 | 0.0 | 1.6 | 0.00 | 0.05 | 0.00 | 84 | 1016.0 |
| 20260902115357 | 24 | 169 | 0.0 | 1.6 | 0.00 | 0.05 | 0.00 | 84 | 1015.9 |
| 20260902114329 | 23 | 168 | 0.0 | 0.0 | 0.00 | 0.05 | 0.00 | 84 | 1015.9 |
| 20260902113319 | 23 | 168 | 0.0 | 0.0 | 0.00 | 0.05 | 0.00 | 84 | 1016.1 |
| 20260902112405 | 23 | 168 | 0.0 | 0.0 | 0.00 | 0.05 | 0.00 | 84 | 1015.8 |
| 20260902111333 | 23 | 168 | 0.0 | 0.0 | 0.00 | 0.05 | 0.00 | 84 | 1015.6 |
| 20260902110406 | 23 | 168 | 0.0 | 0.0 | 0.00 | 0.05 | 0.00 | 84 | 1015.6 |
| 20260902105334 | 23 | 168 | 0.0 | 0.0 | 0.00 | 0.05 | 0.00 | 84 | 1015.6 |
| 20260902104404 | 23 | 168 | 0.0 | 0.0 | 0.00 | 0.05 | 0.00 | 84 | 1015.4 |
| 20260902103332 | 23 | 168 | 0.0 | 0.0 | 0.00 | 0.05 | 0.00 | 84 | 1015.3 |
| 20260902102407 | 23 | 168 | 0.0 | 1.6 | 0.00 | 0.05 | 0.00 | 84 | 1015.3 |
| 20260902101357 | 23 | 168 | 0.0 | 0.0 | 0.00 | 0.05 | 0.00 | 84 | 1015.2 |
| 20260902100354 | 23 | 168 | 0.0 | 0.0 | 0.00 | 0.05 | 0.00 | 84 | 1015.2 |
| 20260902095344 | 23 | 168 | 0.0 | 0.0 | 0.00 | 0.08 | 0.00 | 84 | 1015.1 |
| 20260902094407 | 23 | 168 | 0.0 | 1.6 | 0.00 | 0.08 | 0.00 | 84 | 1015.0 |
| 20260902093340 | 23 | 168 | 0.0 | 0.0 | 0.00 | 0.08 | 0.00 | 84 | 1015.1 |
| 20260902092328 | 23 | 169 | 0.0 | 0.0 | 0.00 | 0.08 | 0.00 | 84 | 1015.0 |
| 20260902091418 | 23 | 169 | 0.0 | 0.0 | 0.00 | 0.08 | 0.00 | 84 | 1014.9 |
| 20260902090330 | 23 | 169 | 0.0 | 0.0 | 0.00 | 0.08 | 0.00 | 84 | 1014.7 |
| 20260902085312 | 24 | 169 | 0.0 | 0.0 | 0.00 | 0.08 | 0.00 | 84 | 1014.7 |
| 20260902084315 | 24 | 169 | 0.0 | 1.6 | 0.00 | 0.08 | 0.00 | 84 | 1014.6 |
| 20260902083309 | 24 | 169 | 0.0 | 0.0 | 0.00 | 0.08 | 0.00 | 84 | 1014.6 |
| 20260902082318 | 24 | 185 | 0.0 | 0.0 | 0.00 | 0.08 | 0.00 | 84 | 1014.6 |
| 20260902081313 | 24 | 185 | 0.0 | 0.0 | 0.00 | 0.08 | 0.00 | 84 | 1014.7 |
| 20260902080321 | 24 | 185 | 0.0 | 0.0 | 0.00 | 0.08 | 0.00 | 84 | 1014.8 |
| 20260902075335 | 24 | 185 | 0.0 | 1.6 | 0.00 | 0.08 | 0.00 | 84 | 1014.7 |
| 20260902074327 | 24 | 186 | 0.0 | 0.0 | 0.00 | 0.08 | 0.00 | 84 | 1014.7 |
| 20260902073315 | 24 | 186 | 0.0 | 1.6 | 0.00 | 0.08 | 0.00 | 84 | 1014.8 |
| 20260902072310 | 24 | 186 | 0.0 | 1.6 | 0.00 | 0.08 | 0.00 | 84 | 1014.8 |
| 20260902071318 | 24 | 186 | 0.0 | 1.6 | 0.00 | 0.08 | 0.00 | 84 | 1015.0 |
| 20260902070312 | 24 | 161 | 0.0 | 1.6 | 0.00 | 0.08 | 0.00 | 83 | 1015.0 |
| 20260902065318 | 24 | 158 | 0.0 | 0.0 | 0.00 | 0.08 | 0.00 | 83 | 1015.0 |
| 20260902064353 | 24 | 158 | 0.0 | 0.0 | 0.00 | 0.08 | 0.00 | 83 | 1015.0 |
| 20260902063422 | 25 | 158 | 0.0 | 0.0 | 0.00 | 0.08 | 0.00 | 84 | 1015.1 |
| 20260902062351 | 25 | 158 | 0.0 | 1.6 | 0.00 | 0.08 | 0.00 | 83 | 1015.1 |
| 20260902061400 | 25 | 155 | 0.0 | 0.0 | 0.00 | 0.08 | 0.00 | 83 | 1015.2 |
| 20260902060311 | 25 | 155 | 0.0 | 1.6 | 0.00 | 0.08 | 0.00 | 83 | 1015.3 |
| 20260902055341 | 25 | 127 | 0.0 | 0.0 | 0.00 | 0.08 | 0.00 | 83 | 1015.3 |
| 20260902054331 | 25 | 127 | 0.0 | 0.0 | 0.00 | 0.08 | 0.00 | 83 | 1015.4 |
| 20260902053401 | 25 | 127 | 0.0 | 0.0 | 0.00 | 0.08 | 0.00 | 83 | 1015.4 |
| 20260902052349 | 25 | 127 | 0.0 | 0.0 | 0.03 | 0.08 | 0.00 | 83 | 1015.5 |
| 20260902051342 | 25 | 122 | 0.0 | 1.6 | 0.03 | 0.08 | 0.00 | 83 | 1015.6 |
| 20260902050332 | 25 | 137 | 0.0 | 1.6 | 0.03 | 0.08 | 0.00 | 83 | 1015.5 |
| 20260902045358 | 25 | 135 | 0.0 | 1.6 | 0.03 | 0.08 | 0.08 | 83 | 1015.5 |
| 20260902044328 | 25 | 134 | 0.0 | 0.0 | 0.03 | 0.08 | 0.08 | 82 | 1015.6 |
| 20260902043358 | 25 | 133 | 0.0 | 1.6 | 0.03 | 0.08 | 0.08 | 82 | 1015.7 |
| 20260902042407 | 25 | 152 | 0.0 | 0.0 | 0.00 | 0.05 | 0.05 | 83 | 1015.7 |
| 20260902041357 | 25 | 152 | 0.0 | 0.0 | 0.00 | 0.05 | 0.05 | 83 | 1015.8 |
| 20260902040347 | 25 | 152 | 0.0 | 0.0 | 0.00 | 0.05 | 0.05 | 83 | 1015.9 |
| 20260902035342 | 25 | 152 | 0.0 | 0.0 | 0.00 | 0.05 | 0.05 | 82 | 1016.1 |
| 20260902034411 | 25 | 152 | 0.0 | 0.0 | 0.00 | 0.05 | 0.05 | 82 | 1016.2 |
| 20260902033347 | 25 | 153 | 0.0 | 1.6 | 0.00 | 0.05 | 0.05 | 82 | 1016.2 |
| 20260902032312 | 25 | 143 | 0.0 | 0.0 | 0.00 | 0.05 | 0.05 | 82 | 1016.4 |
| 20260902031342 | 25 | 145 | 0.0 | 0.0 | 0.00 | 0.05 | 0.05 | 82 | 1016.4 |
| 20260902030331 | 25 | 100 | 0.0 | 0.0 | 0.00 | 0.05 | 0.05 | 81 | 1016.4 |
| 20260902025401 | 25 | 100 | 0.0 | 0.0 | 0.00 | 0.05 | 0.05 | 81 | 1016.4 |
| 20260902024351 | 25 | 100 | 0.0 | 0.0 | 0.00 | 0.05 | 0.05 | 81 | 1016.4 |
| 20260902023425 | 25 | 100 | 0.0 | 1.6 | 0.00 | 0.05 | 0.05 | 80 | 1016.2 |
| 20260902022355 | 25 | 100 | 0.0 | 0.0 | 0.00 | 0.05 | 0.05 | 80 | 1016.1 |